Terminal Aerodrome Forecast
Issued by NWS Cleveland, OH

Home | Current Version | Previous Version | Graphics & Text | Print | Product List | Glossary On
Versions: 1 2 3 4 5 6 7 8 9 10 11 12 13 14 15 16 17 18 19 20 21
532
FTUS41 KCLE 162338
TAFCAK
TAF
KCAK 162338Z 1700/1724 12006KT 4SM BR VCSH SCT006 OVC012
     FM170200 15008KT 2SM -RA BR OVC006
     FM170900 18010KT 1SM -RA BR OVC003
     FM171800 24014KT 4SM BR VCSH BKN006 OVC012=

USA.gov is the U.S. government's official web portal to all federal, state and local government web resources and services.